createdAt,value
2023-02-14T00:00:05.853Z,90.18
2023-02-14T00:05:09.976Z,90.25
2023-02-14T00:10:11.642Z,89.94
2023-02-14T00:15:25.491Z,90.04
2023-02-14T00:20:28.304Z,90.23
2023-02-14T00:25:29.900Z,89.70
2023-02-14T00:30:31.673Z,90.27
2023-02-14T00:35:33.391Z,89.68
2023-02-14T00:40:35.012Z,89.91
2023-02-14T00:45:36.695Z,89.65
2023-02-14T00:50:38.339Z,89.61
2023-02-14T00:55:40.203Z,89.35
2023-02-14T01:00:43.188Z,89.95
2023-02-14T01:05:44.867Z,89.79
2023-02-14T01:10:46.986Z,89.71
2023-02-14T01:15:51.238Z,90.18
2023-02-14T01:20:52.837Z,90.09
2023-02-14T01:25:54.583Z,89.78
2023-02-14T01:30:56.206Z,89.63
2023-02-14T01:35:58.445Z,89.32
2023-02-14T01:41:00.381Z,89.30
2023-02-14T01:46:02.237Z,89.59
2023-02-14T01:51:03.997Z,90.61
2023-02-14T01:56:08.766Z,91.05
2023-02-14T02:01:13.542Z,91.18
2023-02-14T02:06:18.110Z,90.49
2023-02-14T02:11:19.753Z,90.43
2023-02-14T02:16:33.585Z,90.93
2023-02-14T02:22:22.789Z,90.55
2023-02-14T02:27:26.418Z,90.78
2023-02-14T02:32:57.619Z,90.48
2023-02-14T02:38:27.141Z,90.05
2023-02-14T02:43:46.609Z,90.46
2023-02-14T02:49:02.407Z,90.69
2023-02-14T02:54:10.077Z,90.64
2023-02-14T02:59:20.908Z,90.68
2023-02-14T03:04:47.187Z,90.12
2023-02-14T03:09:51.336Z,89.83
2023-02-14T03:15:07.044Z,90.24
2023-02-14T03:20:21.362Z,89.49
2023-02-14T03:25:25.873Z,89.45
2023-02-14T03:30:50.659Z,89.59
2023-02-14T03:36:17.570Z,88.67
2023-02-14T03:41:22.639Z,86.99
2023-02-14T03:46:28.781Z,86.52
2023-02-14T03:51:34.421Z,85.21
2023-02-14T03:56:57.822Z,84.75
2023-02-14T04:02:11.209Z,84.52
2023-02-14T04:07:20.461Z,84.56
2023-02-14T04:12:36.852Z,84.55
2023-02-14T04:17:58.082Z,84.32
2023-02-14T04:23:01.310Z,84.87
2023-02-14T04:28:04.027Z,84.84
2023-02-14T04:33:07.954Z,83.63
2023-02-14T04:38:09.553Z,84.55
2023-02-14T04:43:11.213Z,84.68
2023-02-14T04:48:12.835Z,86.36
2023-02-14T04:53:14.496Z,86.47
2023-02-14T04:58:18.073Z,86.11
2023-02-14T05:03:19.685Z,85.96
2023-02-14T05:08:21.269Z,85.12
2023-02-14T05:13:23.404Z,85.16
2023-02-14T05:18:26.114Z,84.27
2023-02-14T05:23:27.748Z,82.71
2023-02-14T05:28:29.937Z,84.09
2023-02-14T05:33:31.544Z,83.17
2023-02-14T05:38:34.859Z,82.75
2023-02-14T05:43:36.535Z,82.49
2023-02-14T05:48:38.189Z,82.69
2023-02-14T05:53:39.894Z,83.26
2023-02-14T05:58:41.637Z,81.98
2023-02-14T06:03:43.279Z,82.58
2023-02-14T06:08:44.965Z,82.95
2023-02-14T06:13:46.619Z,82.66
2023-02-14T06:18:48.311Z,82.39
2023-02-14T06:23:50.028Z,82.61
2023-02-14T06:28:55.676Z,82.82
2023-02-14T06:33:57.509Z,82.67
2023-02-14T06:38:59.116Z,82.32
2023-02-14T06:44:00.812Z,82.77
2023-02-14T06:49:02.478Z,82.10
2023-02-14T06:54:04.262Z,81.88
2023-02-14T06:59:06.384Z,82.20
2023-02-14T07:04:08.090Z,81.54
2023-02-14T07:09:09.773Z,81.84
2023-02-14T07:14:12.107Z,81.62
2023-02-14T07:19:13.885Z,81.90
2023-02-14T07:24:15.627Z,82.29
2023-02-14T07:29:17.361Z,81.90
2023-02-14T07:34:18.985Z,82.49
2023-02-14T07:39:20.604Z,82.09
2023-02-14T07:44:22.600Z,81.91
2023-02-14T07:49:24.229Z,81.72
2023-02-14T07:54:25.863Z,81.45
2023-02-14T07:59:27.484Z,81.38
2023-02-14T08:04:29.269Z,81.96
2023-02-14T08:09:30.938Z,81.84
2023-02-14T08:14:32.692Z,81.71
2023-02-14T08:19:34.498Z,81.30
2023-02-14T08:24:36.125Z,81.15
2023-02-14T08:29:37.830Z,80.77
2023-02-14T08:34:39.456Z,80.82
2023-02-14T08:39:41.088Z,79.77
2023-02-14T08:44:42.898Z,80.11
2023-02-14T08:49:44.542Z,80.02
2023-02-14T08:54:46.192Z,79.51
2023-02-14T08:59:48.519Z,79.51
2023-02-14T09:04:50.230Z,79.29
2023-02-14T09:09:51.873Z,80.34
2023-02-14T09:14:53.546Z,79.06
2023-02-14T09:19:55.145Z,78.20
2023-02-14T09:24:56.892Z,78.17
2023-02-14T09:29:58.696Z,78.03
2023-02-14T09:35:00.485Z,79.71
2023-02-14T09:40:02.341Z,79.93
2023-02-14T09:45:12.936Z,78.90
2023-02-14T09:50:22.777Z,78.21
2023-02-14T09:55:27.817Z,78.84
2023-02-14T10:00:35.890Z,78.65
2023-02-14T10:06:02.453Z,79.13
2023-02-14T10:11:06.929Z,78.45
2023-02-14T10:16:22.151Z,78.14
2023-02-14T10:21:47.896Z,77.43
2023-02-14T10:26:50.883Z,77.55
2023-02-14T10:31:58.427Z,78.76
2023-02-14T10:37:44.729Z,78.25
2023-02-14T10:43:01.531Z,78.47
2023-02-14T10:48:09.745Z,78.51
2023-02-14T10:53:36.438Z,77.70
2023-02-14T10:58:39.426Z,78.24
2023-02-14T11:03:51.731Z,79.20
2023-02-14T11:08:55.548Z,79.33
2023-02-14T11:13:58.030Z,78.26
2023-02-14T11:19:14.866Z,78.97
2023-02-14T11:24:37.390Z,79.24
2023-02-14T11:29:38.924Z,78.16
2023-02-14T11:35:02.115Z,78.28
2023-02-14T11:40:05.281Z,78.14
2023-02-14T11:45:07.593Z,76.91
2023-02-14T11:50:24.747Z,78.12
2023-02-14T11:55:29.643Z,78.74
2023-02-14T12:00:31.787Z,78.78
2023-02-14T12:05:45.156Z,77.86
2023-02-14T12:11:04.791Z,77.81
2023-02-14T12:16:21.770Z,77.94
2023-02-14T12:21:57.204Z,77.51
2023-02-14T12:27:28.425Z,78.62
2023-02-14T12:32:31.532Z,77.46
2023-02-14T12:38:12.034Z,77.62
2023-02-14T12:43:23.305Z,77.21
2023-02-14T12:48:47.168Z,77.35
2023-02-14T12:54:08.989Z,77.53
2023-02-14T12:59:22.106Z,77.21
2023-02-14T13:04:26.832Z,76.15
2023-02-14T13:09:51.420Z,77.10
2023-02-14T13:15:15.540Z,76.09
2023-02-14T13:20:52.490Z,75.54
2023-02-14T13:26:24.991Z,75.96
2023-02-14T13:31:27.456Z,77.08
2023-02-14T13:36:29.698Z,75.77
2023-02-14T13:41:31.651Z,76.04
2023-02-14T13:46:33.257Z,76.33
2023-02-14T13:52:03.827Z,74.97
2023-02-14T13:57:36.652Z,74.99
2023-02-14T14:02:50.036Z,75.64
2023-02-14T14:08:20.350Z,76.58
2023-02-14T14:13:39.944Z,76.98
2023-02-14T14:18:43.169Z,78.08
2023-02-14T14:23:44.884Z,76.75
2023-02-14T14:28:46.646Z,77.65
2023-02-14T14:33:58.771Z,76.30
2023-02-14T14:39:00.474Z,76.45
2023-02-14T14:44:03.024Z,76.85
2023-02-14T14:49:09.522Z,76.72
2023-02-14T14:54:17.347Z,76.35
2023-02-14T14:59:22.484Z,77.11
2023-02-14T15:04:28.330Z,77.19
2023-02-14T15:09:32.185Z,76.56
2023-02-14T15:14:36.327Z,76.61
2023-02-14T15:19:43.436Z,76.87
2023-02-14T15:24:45.482Z,77.27
2023-02-14T15:29:58.565Z,78.36
2023-02-14T15:35:01.208Z,78.79
2023-02-14T15:40:03.344Z,79.40
2023-02-14T15:45:15.346Z,79.64
2023-02-14T15:50:19.651Z,80.06
2023-02-14T15:55:23.191Z,80.02
2023-02-14T16:00:25.545Z,80.73
2023-02-14T16:05:27.497Z,80.74
2023-02-14T16:10:32.075Z,81.22
2023-02-14T16:15:35.784Z,82.11
2023-02-14T16:20:43.379Z,82.10
2023-02-14T16:25:45.603Z,82.72
2023-02-14T16:30:52.541Z,82.54
2023-02-14T16:35:54.894Z,83.22
2023-02-14T16:40:56.581Z,83.82
2023-02-14T16:45:58.259Z,84.68
2023-02-14T16:51:00.123Z,84.66
2023-02-14T16:56:01.984Z,85.18
2023-02-14T17:01:04.096Z,85.02
2023-02-14T17:06:08.124Z,85.84
2023-02-14T17:11:09.852Z,86.30
2023-02-14T17:16:15.413Z,86.64
2023-02-14T17:21:20.456Z,86.32
2023-02-14T17:26:22.796Z,86.28
2023-02-14T17:31:24.795Z,86.39
2023-02-14T17:36:27.844Z,86.45
2023-02-14T17:41:29.563Z,87.12
2023-02-14T17:46:32.307Z,87.22
2023-02-14T17:51:34.052Z,86.73
2023-02-14T17:56:35.820Z,86.59
2023-02-14T18:01:37.486Z,87.08
2023-02-14T18:06:40.307Z,86.78
2023-02-14T18:11:42.263Z,87.46
2023-02-14T18:16:44.732Z,87.33
2023-02-14T18:21:46.430Z,88.11
2023-02-14T18:26:48.234Z,88.04
2023-02-14T18:31:50.046Z,88.60
2023-02-14T18:36:51.788Z,88.78
2023-02-14T18:41:53.461Z,89.17
2023-02-14T18:46:55.380Z,89.31
2023-02-14T18:51:58.808Z,90.04
2023-02-14T18:57:00.491Z,89.90
2023-02-14T19:02:02.237Z,89.88
2023-02-14T19:07:04.503Z,90.51
2023-02-14T19:12:07.020Z,90.73
2023-02-14T19:17:08.729Z,90.79
2023-02-14T19:22:11.024Z,91.07
2023-02-14T19:27:12.718Z,91.39
2023-02-14T19:32:14.452Z,91.60
2023-02-14T19:37:16.141Z,91.86
2023-02-14T19:42:17.800Z,92.33
2023-02-14T19:47:31.288Z,92.61
2023-02-14T19:52:41.432Z,92.40
2023-02-14T19:57:43.520Z,92.60
2023-02-14T20:02:48.213Z,92.67
2023-02-14T20:07:51.898Z,92.93
2023-02-14T20:12:53.581Z,92.99
2023-02-14T20:17:55.577Z,92.98
2023-02-14T20:22:57.214Z,93.40
2023-02-14T20:27:58.800Z,93.42
2023-02-14T20:33:00.694Z,93.74
2023-02-14T20:38:02.815Z,93.91
2023-02-14T20:43:04.569Z,94.20
2023-02-14T20:48:08.538Z,93.94
2023-02-14T20:53:10.298Z,94.45
2023-02-14T20:58:12.222Z,94.53
2023-02-14T21:03:13.855Z,94.49
2023-02-14T21:08:16.324Z,95.00
2023-02-14T21:13:18.012Z,94.79
2023-02-14T21:18:19.607Z,94.68
2023-02-14T21:23:21.212Z,94.74
2023-02-14T21:28:22.841Z,95.10
2023-02-14T21:33:25.383Z,95.18
2023-02-14T21:38:27.993Z,94.94
2023-02-14T21:43:29.621Z,95.15
2023-02-14T21:48:50.293Z,95.14
2023-02-14T21:53:52.508Z,95.77
2023-02-14T21:58:55.622Z,95.78
2023-02-14T22:03:58.908Z,95.90
2023-02-14T22:09:00.655Z,95.66
2023-02-14T22:14:02.912Z,95.29
2023-02-14T22:19:06.009Z,95.59
2023-02-14T22:24:07.812Z,95.91
2023-02-14T22:29:11.441Z,95.91
2023-02-14T22:34:17.662Z,95.97
2023-02-14T22:39:19.470Z,96.09
2023-02-14T22:44:21.092Z,96.26
2023-02-14T22:49:22.898Z,96.22
2023-02-14T22:54:24.548Z,96.48
2023-02-14T22:59:32.083Z,96.52
2023-02-14T23:04:33.694Z,96.23
2023-02-14T23:09:35.359Z,96.80
2023-02-14T23:14:55.620Z,96.45
2023-02-14T23:20:15.635Z,97.01
2023-02-14T23:25:17.311Z,96.88
2023-02-14T23:30:19.271Z,97.22
2023-02-14T23:35:20.906Z,97.06
2023-02-14T23:40:22.561Z,97.14
2023-02-14T23:45:36.104Z,97.05
2023-02-14T23:50:38.295Z,97.42
2023-02-14T23:55:39.913Z,97.03
